createdAt,value
2019-02-25T00:01:12.377Z,7.83
2019-02-25T00:03:42.525Z,6.83
2019-02-25T00:06:12.644Z,8.00
2019-02-25T00:08:42.824Z,7.03
2019-02-25T00:11:12.977Z,6.58
2019-02-25T00:13:43.221Z,5.50
2019-02-25T00:16:13.425Z,5.75
2019-02-25T00:18:43.569Z,5.72
2019-02-25T00:21:13.742Z,6.03
2019-02-25T00:23:43.897Z,6.17
2019-02-25T00:26:14.096Z,5.78
2019-02-25T00:28:44.249Z,5.10
2019-02-25T00:31:14.437Z,4.80
2019-02-25T00:33:45.310Z,4.70
2019-02-25T00:36:15.470Z,4.90
2019-02-25T00:38:45.585Z,3.85
2019-02-25T00:41:15.754Z,4.05
2019-02-25T00:43:45.995Z,3.50
2019-02-25T00:46:16.141Z,3.92
2019-02-25T00:48:46.249Z,3.72
2019-02-25T00:51:17.234Z,4.30
2019-02-25T00:53:47.352Z,4.67
2019-02-25T00:56:17.511Z,3.72
2019-02-25T00:58:47.619Z,4.30
2019-02-25T01:01:18.077Z,4.87
2019-02-25T01:03:48.185Z,3.62
2019-02-25T01:06:18.328Z,4.20
2019-02-25T01:08:48.459Z,4.47
2019-02-25T01:11:18.677Z,4.75
2019-02-25T01:13:48.790Z,9.85
2019-02-25T01:16:21.290Z,6.65
2019-02-25T01:18:51.446Z,5.80
2019-02-25T01:21:21.582Z,6.35
2019-02-25T01:23:51.734Z,7.35
2019-02-25T01:26:21.897Z,5.72
2019-02-25T01:28:53.094Z,6.08
2019-02-25T01:31:23.654Z,6.83
2019-02-25T01:33:53.819Z,4.50
2019-02-25T01:36:23.973Z,6.03
2019-02-25T01:38:54.156Z,6.35
2019-02-25T01:41:24.309Z,6.53
2019-02-25T01:43:55.461Z,5.08
2019-02-25T01:46:25.622Z,5.95
2019-02-25T01:48:55.824Z,4.62
2019-02-25T01:51:28.455Z,5.80
2019-02-25T01:53:58.643Z,4.03
2019-02-25T01:56:28.790Z,5.03
2019-02-25T01:58:58.921Z,4.10
2019-02-25T02:01:29.054Z,3.80
2019-02-25T02:03:59.203Z,3.40
2019-02-25T02:06:29.385Z,6.85
2019-02-25T02:08:59.633Z,7.87
2019-02-25T02:11:29.915Z,5.20
2019-02-25T02:14:00.062Z,6.70
2019-02-25T02:16:30.220Z,5.35
2019-02-25T02:19:00.374Z,5.65
2019-02-25T02:21:30.537Z,5.87
2019-02-25T02:24:00.673Z,4.12
2019-02-25T02:26:30.841Z,4.17
2019-02-25T02:29:03.381Z,4.22
2019-02-25T02:31:33.533Z,3.50
2019-02-25T02:34:03.658Z,2.72
2019-02-25T02:36:33.801Z,5.40
2019-02-25T02:39:03.942Z,5.37
2019-02-25T02:41:41.205Z,6.33
2019-02-25T02:44:11.352Z,5.15
2019-02-25T02:46:44.655Z,7.33
2019-02-25T02:49:14.901Z,8.05
2019-02-25T02:51:45.906Z,7.78
2019-02-25T02:54:16.049Z,4.20
2019-02-25T02:56:46.205Z,4.62
2019-02-25T02:59:16.376Z,5.15
2019-02-25T03:01:46.523Z,5.80
2019-02-25T03:04:16.735Z,5.45
2019-02-25T03:06:46.879Z,3.95
2019-02-25T03:09:17.043Z,5.92
2019-02-25T03:11:47.215Z,5.78
2019-02-25T03:14:17.403Z,4.78
2019-02-25T03:16:47.638Z,5.85
2019-02-25T03:19:17.777Z,6.22
2019-02-25T03:21:47.916Z,6.75
2019-02-25T03:24:18.111Z,8.80
2019-02-25T03:26:48.269Z,8.75
2019-02-25T03:29:18.401Z,5.20
2019-02-25T03:31:48.583Z,6.12
2019-02-25T03:34:18.724Z,6.58
2019-02-25T03:36:49.658Z,7.60
2019-02-25T03:39:19.815Z,6.17
2019-02-25T03:41:49.945Z,5.78
2019-02-25T03:44:20.116Z,5.20
2019-02-25T03:46:50.304Z,5.37
2019-02-25T03:49:20.412Z,5.20
2019-02-25T03:51:50.567Z,7.03
2019-02-25T03:54:23.109Z,8.30
2019-02-25T03:56:53.275Z,6.78
2019-02-25T03:59:24.485Z,5.45
2019-02-25T04:01:55.394Z,5.00
2019-02-25T04:04:25.549Z,5.42
2019-02-25T04:06:55.705Z,7.65
2019-02-25T04:09:25.865Z,6.00
2019-02-25T04:11:56.045Z,5.25
2019-02-25T04:14:26.193Z,6.78
2019-02-25T04:16:56.399Z,6.92
2019-02-25T04:19:26.548Z,7.62
2019-02-25T04:21:57.292Z,8.28
2019-02-25T04:24:27.460Z,7.17
2019-02-25T04:26:57.597Z,7.85
2019-02-25T04:29:27.754Z,8.88
2019-02-25T04:31:57.943Z,5.22
2019-02-25T04:34:28.905Z,6.87
2019-02-25T04:36:59.083Z,5.40
2019-02-25T04:39:29.209Z,5.45
2019-02-25T04:42:01.617Z,6.72
2019-02-25T04:44:31.766Z,4.83
2019-02-25T04:47:01.924Z,4.10
2019-02-25T04:49:32.075Z,5.40
2019-02-25T04:52:02.263Z,7.62
2019-02-25T04:54:32.420Z,5.62
2019-02-25T04:57:03.580Z,7.42
2019-02-25T04:59:33.752Z,7.47
2019-02-25T05:02:04.227Z,6.37
2019-02-25T05:04:35.216Z,6.75
2019-02-25T05:07:05.337Z,7.37
2019-02-25T05:09:35.487Z,7.20
2019-02-25T05:12:06.449Z,6.72
2019-02-25T05:14:36.602Z,7.60
2019-02-25T05:17:06.726Z,8.80
2019-02-25T05:19:37.898Z,6.65
2019-02-25T05:22:08.106Z,7.25
2019-02-25T05:24:38.260Z,4.90
2019-02-25T05:27:08.461Z,7.83
2019-02-25T05:29:38.594Z,8.45
2019-02-25T05:32:09.746Z,9.30
2019-02-25T05:34:39.903Z,9.38
2019-02-25T05:37:10.045Z,8.40
2019-02-25T05:39:40.196Z,7.10
2019-02-25T05:42:10.347Z,8.20
2019-02-25T05:44:41.285Z,8.48
2019-02-25T05:47:11.422Z,6.97
2019-02-25T05:49:41.565Z,9.30
2019-02-25T05:52:11.718Z,7.95
2019-02-25T05:54:42.620Z,6.30
2019-02-25T05:57:12.808Z,7.40
2019-02-25T05:59:43.678Z,8.05
2019-02-25T06:02:13.849Z,8.98
2019-02-25T06:04:44.049Z,8.63
2019-02-25T06:07:14.203Z,8.00
2019-02-25T06:09:44.314Z,6.97
2019-02-25T06:12:15.019Z,4.80
2019-02-25T06:14:45.252Z,6.85
2019-02-25T06:17:15.364Z,5.78
2019-02-25T06:19:45.502Z,6.85
2019-02-25T06:22:16.295Z,7.58
2019-02-25T06:24:46.421Z,6.95
2019-02-25T06:27:16.557Z,7.08
2019-02-25T06:29:46.779Z,8.85
2019-02-25T06:32:17.030Z,6.53
2019-02-25T06:34:47.167Z,9.40
2019-02-25T06:37:17.526Z,8.83
2019-02-25T06:39:47.678Z,6.72
2019-02-25T06:42:17.837Z,8.50
2019-02-25T06:44:50.326Z,6.35
2019-02-25T06:47:20.478Z,7.20
2019-02-25T06:49:50.615Z,7.55
2019-02-25T06:52:20.818Z,5.20
2019-02-25T06:54:51.862Z,4.50
2019-02-25T06:57:22.033Z,5.30
2019-02-25T06:59:53.836Z,5.80
2019-02-25T07:02:25.007Z,6.22
2019-02-25T07:04:56.673Z,7.55
2019-02-25T07:07:28.453Z,8.68
2019-02-25T07:10:06.359Z,8.85
2019-02-25T07:12:38.162Z,7.62
2019-02-25T07:15:09.894Z,5.85
2019-02-25T07:17:57.648Z,8.25
2019-02-25T07:20:42.774Z,9.28
2019-02-25T07:23:14.570Z,8.33
2019-02-25T07:25:46.330Z,9.73
2019-02-25T07:28:36.132Z,9.50
2019-02-25T07:31:16.892Z,7.85
2019-02-25T07:33:52.067Z,9.15
2019-02-25T07:36:23.746Z,8.45
2019-02-25T07:39:11.695Z,8.55
2019-02-25T07:41:49.173Z,9.20
2019-02-25T07:44:23.431Z,5.50
2019-02-25T07:46:55.131Z,7.40
2019-02-25T07:49:35.817Z,8.93
2019-02-25T07:52:23.766Z,9.85
2019-02-25T07:54:57.762Z,8.35
2019-02-25T07:57:29.460Z,8.80
2019-02-25T08:00:06.948Z,4.95
2019-02-25T08:02:50.873Z,7.87
2019-02-25T08:07:58.422Z,8.53
2019-02-25T08:10:30.159Z,8.65
2019-02-25T08:13:01.859Z,9.00
2019-02-25T08:15:36.311Z,8.88
2019-02-25T08:18:14.029Z,8.53
2019-02-25T08:21:00.761Z,8.20
2019-02-25T08:23:38.553Z,8.28
2019-02-25T08:26:10.278Z,8.63
2019-02-25T08:28:41.962Z,7.78
2019-02-25T08:31:15.937Z,8.80
2019-02-25T08:33:50.619Z,6.67
2019-02-25T08:39:03.745Z,7.65
2019-02-25T08:41:35.932Z,7.80
2019-02-25T08:44:23.001Z,5.87
2019-02-25T08:46:54.749Z,8.33
2019-02-25T08:49:32.308Z,7.97
2019-02-25T08:52:02.481Z,7.15
2019-02-25T08:54:32.640Z,7.15
2019-02-25T08:57:02.894Z,6.85
2019-02-25T08:59:33.089Z,5.97
2019-02-25T09:02:03.242Z,7.08
2019-02-25T09:04:34.395Z,5.40
2019-02-25T09:07:04.552Z,5.20
2019-02-25T09:09:34.777Z,6.42
2019-02-25T09:12:04.885Z,5.62
2019-02-25T09:14:35.044Z,5.83
2019-02-25T09:17:05.257Z,6.47
2019-02-25T09:19:35.426Z,5.35
2019-02-25T09:22:05.570Z,5.70
2019-02-25T09:24:35.796Z,6.25
2019-02-25T09:27:05.987Z,5.95
2019-02-25T09:29:38.379Z,6.50
2019-02-25T09:32:08.532Z,4.75
2019-02-25T09:34:38.689Z,4.90
2019-02-25T09:37:08.843Z,4.53
2019-02-25T09:39:38.991Z,5.50
2019-02-25T09:42:10.685Z,4.97
2019-02-25T09:44:41.850Z,4.90
2019-02-25T09:47:12.002Z,5.15
2019-02-25T09:49:42.231Z,5.92
2019-02-25T09:52:12.392Z,5.10
2019-02-25T09:54:42.559Z,5.28
2019-02-25T09:57:12.701Z,5.03
2019-02-25T09:59:42.891Z,6.15
2019-02-25T10:02:13.840Z,6.47
2019-02-25T10:04:43.996Z,5.90
2019-02-25T10:07:14.145Z,5.33
2019-02-25T10:09:44.297Z,5.75
2019-02-25T10:12:14.417Z,5.47
2019-02-25T10:14:44.573Z,5.47
2019-02-25T10:17:23.521Z,5.10
2019-02-25T10:19:47.282Z,5.72
2019-02-25T10:22:17.401Z,4.50
2019-02-25T10:24:47.558Z,5.10
2019-02-25T10:27:17.700Z,4.35
2019-02-25T10:29:47.860Z,4.33
2019-02-25T10:32:17.988Z,5.78
2019-02-25T10:34:48.139Z,4.53
2019-02-25T10:37:18.266Z,5.78
2019-02-25T10:39:49.533Z,4.80
2019-02-25T10:42:22.444Z,4.17
2019-02-25T10:44:52.651Z,4.58
2019-02-25T10:47:22.778Z,6.08
2019-02-25T10:49:53.717Z,4.70
2019-02-25T10:52:23.846Z,5.50
2019-02-25T10:54:56.262Z,5.08
2019-02-25T10:57:29.006Z,4.70
2019-02-25T10:59:58.250Z,4.60
2019-02-25T11:02:28.369Z,4.10
2019-02-25T11:04:58.512Z,3.98
2019-02-25T11:07:28.660Z,4.03
2019-02-25T11:10:00.493Z,4.92
2019-02-25T11:12:32.072Z,4.22
2019-02-25T11:15:05.292Z,5.42
2019-02-25T11:17:36.425Z,6.05
2019-02-25T11:20:09.695Z,5.17
2019-02-25T11:22:41.580Z,5.17
2019-02-25T11:25:13.942Z,5.78
2019-02-25T11:27:44.082Z,5.55
2019-02-25T11:30:19.342Z,6.28
2019-02-25T11:32:51.124Z,7.33
2019-02-25T11:35:21.902Z,7.60
2019-02-25T11:37:54.237Z,6.92
2019-02-25T11:40:25.884Z,6.15
2019-02-25T11:42:55.645Z,5.70
2019-02-25T11:45:25.842Z,4.90
2019-02-25T11:47:55.983Z,5.37
2019-02-25T11:50:26.138Z,4.45
2019-02-25T11:52:56.245Z,3.98
2019-02-25T11:55:26.387Z,4.03
2019-02-25T11:57:56.496Z,5.87
2019-02-25T12:00:27.554Z,5.53
2019-02-25T12:02:57.683Z,3.90
2019-02-25T12:05:27.826Z,3.90
2019-02-25T12:07:57.949Z,4.05
2019-02-25T12:10:28.117Z,3.70
2019-02-25T12:12:58.221Z,5.60
2019-02-25T12:15:28.386Z,3.90
2019-02-25T12:17:58.493Z,4.97
2019-02-25T12:20:28.655Z,4.40
2019-02-25T12:22:58.760Z,4.15
2019-02-25T12:25:28.919Z,4.40
2019-02-25T12:27:59.027Z,3.85
2019-02-25T12:30:30.165Z,3.87
2019-02-25T12:33:00.280Z,4.08
2019-02-25T12:35:30.423Z,3.42
2019-02-25T12:38:00.548Z,4.22
2019-02-25T12:40:30.713Z,4.83
2019-02-25T12:43:00.845Z,4.40
2019-02-25T12:45:31.994Z,4.87
2019-02-25T12:48:02.100Z,3.95
2019-02-25T12:50:32.254Z,4.65
2019-02-25T12:53:02.385Z,3.60
2019-02-25T12:55:32.545Z,3.65
2019-02-25T12:58:02.692Z,4.03
2019-02-25T13:00:32.864Z,4.47
2019-02-25T13:03:14.917Z,4.45
2019-02-25T13:05:45.085Z,4.83
2019-02-25T13:08:15.245Z,4.95
2019-02-25T13:10:45.413Z,4.78
2019-02-25T13:13:15.585Z,5.12
2019-02-25T13:15:51.881Z,5.05
2019-02-25T13:18:22.053Z,4.67
2019-02-25T13:20:52.171Z,4.72
2019-02-25T13:23:22.312Z,3.47
2019-02-25T13:25:52.463Z,3.30
2019-02-25T13:28:23.551Z,3.65
2019-02-25T13:30:55.426Z,3.08
2019-02-25T13:33:25.555Z,3.45
2019-02-25T13:35:57.105Z,3.52
2019-02-25T13:38:27.338Z,4.33
2019-02-25T13:40:57.492Z,3.92
2019-02-25T13:43:28.597Z,3.47
2019-02-25T13:45:58.746Z,3.60
2019-02-25T13:48:28.864Z,4.15
2019-02-25T13:50:59.040Z,3.80
2019-02-25T13:53:29.229Z,3.83
2019-02-25T13:56:00.149Z,3.12
2019-02-25T13:58:30.252Z,3.02
2019-02-25T14:01:02.739Z,2.85
2019-02-25T14:03:32.861Z,3.05
2019-02-25T14:06:03.027Z,4.17
2019-02-25T14:08:34.878Z,4.22
2019-02-25T14:11:05.809Z,3.12
2019-02-25T14:13:35.964Z,3.20
2019-02-25T14:16:06.113Z,3.22
2019-02-25T14:18:36.234Z,2.98
2019-02-25T14:21:06.636Z,2.60
2019-02-25T14:23:38.231Z,3.05
2019-02-25T14:26:10.251Z,3.65
2019-02-25T14:28:40.410Z,2.80
2019-02-25T14:31:10.525Z,2.70
2019-02-25T14:33:51.954Z,2.80
2019-02-25T14:36:20.305Z,2.00
2019-02-25T14:38:51.780Z,2.95
2019-02-25T14:41:22.205Z,2.70
2019-02-25T14:43:54.195Z,3.35
2019-02-25T14:46:24.950Z,3.98
2019-02-25T14:48:55.876Z,3.55
2019-02-25T14:51:26.005Z,2.77
2019-02-25T14:53:56.133Z,3.00
2019-02-25T14:56:26.329Z,2.42
2019-02-25T14:58:56.448Z,3.20
2019-02-25T15:01:27.647Z,3.30
2019-02-25T15:04:00.138Z,4.95
2019-02-25T15:06:30.900Z,3.37
2019-02-25T15:09:03.963Z,3.58
2019-02-25T15:11:35.334Z,3.87
2019-02-25T15:14:08.069Z,3.87
2019-02-25T15:16:39.554Z,3.42
2019-02-25T15:19:09.808Z,4.65
2019-02-25T15:21:42.993Z,3.42
2019-02-25T15:24:12.711Z,2.85
2019-02-25T15:26:43.537Z,3.45
2019-02-25T15:29:13.793Z,3.12
2019-02-25T15:31:44.407Z,3.50
2019-02-25T15:34:17.190Z,3.50
2019-02-25T15:36:47.634Z,5.90
2019-02-25T15:39:18.097Z,5.47
2019-02-25T15:41:48.705Z,4.83
2019-02-25T15:44:20.034Z,3.90
2019-02-25T15:46:50.477Z,3.92
2019-02-25T15:49:21.743Z,3.92
2019-02-25T15:51:52.486Z,4.30
2019-02-25T15:54:22.621Z,4.42
2019-02-25T15:56:52.762Z,5.25
2019-02-25T15:59:31.765Z,5.87
2019-02-25T16:01:54.733Z,4.70
2019-02-25T16:04:25.508Z,5.53
2019-02-25T16:06:57.641Z,6.03
2019-02-25T16:09:29.720Z,5.75
2019-02-25T16:12:00.966Z,5.17
2019-02-25T16:14:34.054Z,6.17
2019-02-25T16:17:04.211Z,7.08
2019-02-25T16:19:41.527Z,5.35
2019-02-25T16:22:07.938Z,7.25
2019-02-25T16:24:38.034Z,9.65
2019-02-25T16:27:08.488Z,11.12
2019-02-25T16:29:40.969Z,8.48
2019-02-25T16:32:11.170Z,6.90
2019-02-25T16:34:42.693Z,6.40
2019-02-25T16:37:12.998Z,4.75
2019-02-25T16:39:45.441Z,6.85
2019-02-25T16:42:15.626Z,6.42
2019-02-25T16:44:45.841Z,7.53
2019-02-25T16:47:18.188Z,7.40
2019-02-25T16:49:50.361Z,7.87
2019-02-25T16:52:22.739Z,8.73
2019-02-25T16:54:52.583Z,8.00
2019-02-25T16:57:23.435Z,8.43
2019-02-25T17:00:02.246Z,8.73
2019-02-25T17:02:34.456Z,9.35
2019-02-25T17:05:06.084Z,7.70
2019-02-25T17:07:37.914Z,7.97
2019-02-25T17:10:10.822Z,8.48
2019-02-25T17:12:41.008Z,9.85
2019-02-25T17:15:13.285Z,8.95
2019-02-25T17:17:43.619Z,8.33
2019-02-25T17:20:21.384Z,7.92
2019-02-25T17:22:51.640Z,9.28
2019-02-25T17:25:21.764Z,9.63
2019-02-25T17:27:51.938Z,8.70
2019-02-25T17:30:26.541Z,7.30
2019-02-25T17:32:57.668Z,8.53
2019-02-25T17:35:28.867Z,8.05
2019-02-25T17:38:00.855Z,8.73
2019-02-25T17:40:31.564Z,7.87
2019-02-25T17:43:01.919Z,7.65
2019-02-25T17:45:34.374Z,8.15
2019-02-25T17:48:08.137Z,11.28
2019-02-25T17:50:37.142Z,9.80
2019-02-25T17:53:09.428Z,10.80
2019-02-25T17:55:39.728Z,12.00
2019-02-25T17:58:09.892Z,12.55
2019-02-25T18:00:46.616Z,13.25
2019-02-25T18:03:17.421Z,10.82
2019-02-25T18:05:48.287Z,13.05
2019-02-25T18:08:18.689Z,14.03
2019-02-25T18:10:50.058Z,12.15
2019-02-25T18:13:21.926Z,12.60
2019-02-25T18:15:53.673Z,14.05
2019-02-25T18:18:24.535Z,13.20
2019-02-25T18:20:54.888Z,11.18
2019-02-25T18:23:25.870Z,13.20
2019-02-25T18:25:58.669Z,13.20
2019-02-25T18:28:27.983Z,12.98
2019-02-25T18:31:01.766Z,12.00
2019-02-25T18:33:32.430Z,13.72
2019-02-25T18:36:04.131Z,14.28
2019-02-25T18:38:34.640Z,11.88
2019-02-25T18:41:06.380Z,14.53
2019-02-25T18:43:36.662Z,15.08
2019-02-25T18:46:07.264Z,18.25
2019-02-25T18:48:37.722Z,22.80
2019-02-25T18:51:07.855Z,15.65
2019-02-25T18:53:38.022Z,14.25
2019-02-25T18:56:11.604Z,13.88
2019-02-25T18:58:41.630Z,15.45
2019-02-25T19:01:13.397Z,14.33
2019-02-25T19:03:44.438Z,13.83
2019-02-25T19:06:15.518Z,13.88
2019-02-25T19:08:47.328Z,13.00
2019-02-25T19:11:19.053Z,11.48
2019-02-25T19:13:52.038Z,11.90
2019-02-25T19:16:24.029Z,13.20
2019-02-25T19:18:55.149Z,13.00
2019-02-25T19:21:26.025Z,12.80
2019-02-25T19:23:57.073Z,14.85
2019-02-25T19:26:27.208Z,15.00
2019-02-25T19:28:58.941Z,14.28
2019-02-25T19:31:29.396Z,13.13
2019-02-25T19:34:00.496Z,14.30
2019-02-25T19:36:34.401Z,13.45
2019-02-25T19:39:09.342Z,11.83
2019-02-25T19:41:37.213Z,12.18
2019-02-25T19:44:08.033Z,12.05
2019-02-25T19:46:39.062Z,10.13
2019-02-25T19:49:11.027Z,10.25
2019-02-25T19:51:43.381Z,10.50
2019-02-25T19:54:14.018Z,12.03
2019-02-25T19:56:46.059Z,13.00
2019-02-25T19:59:18.878Z,12.28
2019-02-25T20:01:48.747Z,11.60
2019-02-25T20:04:18.938Z,11.12
2019-02-25T20:06:51.304Z,12.75
2019-02-25T20:09:22.538Z,12.33
2019-02-25T20:12:01.315Z,11.60
2019-02-25T20:14:31.426Z,11.70
2019-02-25T20:17:02.678Z,11.70
2019-02-25T20:19:32.970Z,11.70
2019-02-25T20:22:04.097Z,11.73
2019-02-25T20:24:34.275Z,10.72
2019-02-25T20:27:05.251Z,10.20
2019-02-25T20:29:37.825Z,8.78
2019-02-25T20:32:10.181Z,9.65
2019-02-25T20:34:40.674Z,9.13
2019-02-25T20:37:10.789Z,9.35
2019-02-25T20:39:42.843Z,9.85
2019-02-25T20:42:17.322Z,9.23
2019-02-25T20:44:49.250Z,9.23
2019-02-25T20:47:19.695Z,9.78
2019-02-25T20:49:53.682Z,10.65
2019-02-25T20:52:22.217Z,8.43
2019-02-25T20:54:52.495Z,9.30
2019-02-25T20:57:22.626Z,9.35
2019-02-25T20:59:53.315Z,8.03
2019-02-25T21:02:25.649Z,7.97
2019-02-25T21:04:58.081Z,9.10
2019-02-25T21:07:29.784Z,6.55
2019-02-25T21:10:01.419Z,9.60
2019-02-25T21:12:32.714Z,8.03
2019-02-25T21:15:02.866Z,8.08
2019-02-25T21:17:35.536Z,7.17
2019-02-25T21:20:10.164Z,8.45
2019-02-25T21:22:40.273Z,11.12
2019-02-25T21:25:13.963Z,8.03
2019-02-25T21:27:44.123Z,10.67
2019-02-25T21:30:22.094Z,10.20
2019-02-25T21:32:54.134Z,10.78
2019-02-25T21:35:27.536Z,8.13
2019-02-25T21:37:55.747Z,12.75
2019-02-25T21:40:29.381Z,10.48
2019-02-25T21:42:57.825Z,7.47
2019-02-25T21:45:30.203Z,7.80
2019-02-25T21:48:02.066Z,10.13
2019-02-25T21:50:34.067Z,12.37
2019-02-25T21:53:04.884Z,10.35
2019-02-25T21:55:36.044Z,7.67
2019-02-25T21:58:06.189Z,6.40
2019-02-25T22:00:38.600Z,6.33
2019-02-25T22:03:10.337Z,10.18
2019-02-25T22:05:40.130Z,10.55
2019-02-25T22:08:10.325Z,7.90
2019-02-25T22:10:42.040Z,11.15
2019-02-25T22:13:14.139Z,9.20
2019-02-25T22:15:45.264Z,8.80
2019-02-25T22:18:15.593Z,9.33
2019-02-25T22:20:47.650Z,11.20
2019-02-25T22:23:17.482Z,7.90
2019-02-25T22:25:47.603Z,12.23
2019-02-25T22:28:17.737Z,9.00
2019-02-25T22:30:49.623Z,9.60
2019-02-25T22:33:27.534Z,11.35
2019-02-25T22:35:51.902Z,7.87
2019-02-25T22:38:22.090Z,11.65
2019-02-25T22:40:53.623Z,11.70
2019-02-25T22:43:25.264Z,12.23
2019-02-25T22:45:58.104Z,11.57
2019-02-25T22:48:27.181Z,11.57
2019-02-25T22:50:57.773Z,11.63
2019-02-25T22:53:29.106Z,10.15
2019-02-25T22:55:59.316Z,12.78
2019-02-25T22:58:31.586Z,10.20
2019-02-25T23:01:04.821Z,10.38
2019-02-25T23:03:36.476Z,11.78
2019-02-25T23:06:09.233Z,11.63
2019-02-25T23:08:42.095Z,9.05
2019-02-25T23:11:12.540Z,11.95
2019-02-25T23:13:43.215Z,10.43
2019-02-25T23:16:15.713Z,9.70
2019-02-25T23:18:47.796Z,7.67
2019-02-25T23:21:23.789Z,10.55
2019-02-25T23:23:53.448Z,11.18
2019-02-25T23:26:22.649Z,11.78
2019-02-25T23:28:53.760Z,11.80
2019-02-25T23:31:24.659Z,12.03
2019-02-25T23:33:56.307Z,11.30
2019-02-25T23:36:26.637Z,11.22
2019-02-25T23:38:57.146Z,8.43
2019-02-25T23:41:32.028Z,10.88
2019-02-25T23:44:01.096Z,9.98
2019-02-25T23:46:32.167Z,10.68
2019-02-25T23:49:03.113Z,10.75
2019-02-25T23:51:33.261Z,10.05
2019-02-25T23:54:03.458Z,8.25
2019-02-25T23:56:33.606Z,8.55
2019-02-25T23:59:03.736Z,9.03
